MSC Cordoba — A8OF8 — position and weather

sailwx.info

Track history (hours):
 
Tides and Currents Weather Stations Pressure Air Temp Water Temp Dewpoint Dewpoint Depression Visibility Wind Speed Wind Dir Waves Ship Positions

MSC Cordoba

Last reported at 2014-Sep-21 05:31 UTC. Time now 2014-Sep-21 06:05 UTC.
Position N 51°19' E 004°19'.

Length 274 m; draft 12.1 m.

Type: Ship (hazmat cat A). MMSI: 636091473.

Date/timePositionNaut miles runAvg speedWind from/ knotsBaromVisibWave heightAir tempDewpointWater temp
2014-Sep-21 05:31N 51°19' E 004°19'0 0.0
2014-Sep-21 04:31N 51°19' E 004°19'0 0.0
2014-Sep-21 03:31N 51°19' E 004°19'0 0.0
2014-Sep-21 02:33N 51°19' E 004°19'0 0.0
2014-Sep-21 01:33N 51°19' E 004°19'0 0.0
2014-Sep-21 00:32N 51°19' E 004°19'0 0.0
2014-Sep-20 23:33N 51°19' E 004°19'0 0.0
2014-Sep-20 22:28N 51°19' E 004°19'0 0.0
2014-Sep-20 21:31N 51°19' E 004°19'1 1.2
2014-Sep-20 20:33N 51°20' E 004°18'1 0.6
2014-Sep-20 19:33N 51°21' E 004°17'0 0.0
2014-Sep-20 18:34N 51°21' E 004°17'5 5.1
2014-Sep-20 17:33N 51°23' E 004°10'8 7.7
2014-Sep-20 16:33N 51°25' E 003°58'9 9.1
2014-Sep-20 15:33N 51°22' E 003°44'8 7.8
2014-Sep-20 14:33N 51°25' E 003°33'1010.3
2014-Sep-20 13:33N 51°24' E 003°16'1212.5
2014-Sep-20 12:34N 51°25' E 002°56'1313.1
2014-Sep-20 11:33N 51°22' E 002°36'1513.2
2014-Sep-20 10:24N 51°17' E 002°13'1719.8
2014-Sep-20 09:33N 51°09' E 001°50'2019.6
2014-Sep-20 08:33N 50°54' E 001°29'2018.6
2014-Sep-20 07:28N 50°36' E 001°13'1719.2
2014-Sep-20 06:33N 50°25' E 000°53'2019.7
2014-Sep-20 05:32N 50°10' E 000°31'4118.5
2014-Sep-20 03:19N 49°36' W 000°05'810.9
2014-Sep-20 02:33N 49°30' E 000°03'4 3.6
2014-Sep-20 01:28N 49°28' E 000°09'0 0.0
2014-Sep-19 22:27N 49°28' E 000°09'0 0.0
2014-Sep-19 20:26N 49°28' E 000°09'0 0.0
2014-Sep-19 19:29N 49°28' E 000°09'0 0.0
2014-Sep-19 18:19N 49°28' E 000°09'0 0.0
2014-Sep-19 17:04N 49°28' E 000°09'0 0.0
2014-Sep-19 16:06N 49°28' E 000°09'0 0.0
2014-Sep-19 15:24N 49°28' E 000°09'0 0.0
2014-Sep-19 12:16N 49°28' E 000°09'0 0.0
2014-Sep-19 11:28N 49°28' E 000°09'0 0.0
2014-Sep-19 10:33N 49°28' E 000°09'9 8.9
2014-Sep-19 09:33N 49°31' W 000°04'9 8.9
2014-Sep-19 08:33N 49°39' W 000°08'9 9.1
2014-Sep-19 07:33N 49°49' W 000°09'3817.8
2014-Sep-19 05:26N 50°26' W 000°03'1517.1
2014-Sep-19 04:33N 50°31' E 000°19'1817.8
2014-Sep-19 03:33N 50°39' E 000°45'1919.1
2014-Sep-19 02:33N 50°50' E 001°09'2120.1
2014-Sep-19 01:32N 51°05' E 001°32'1919.5
2014-Sep-19 00:33N 51°20' E 001°50'1818.3
2014-Sep-18 23:33N 51°34' E 002°09'1918.5
2014-Sep-18 22:33N 51°48' E 002°29'1717.4
2014-Sep-18 21:33N 52°05' E 002°37'1817.8
2014-Sep-18 20:32N 52°22' E 002°46'7719.1
2014-Sep-18 16:29N 53°33' E 003°35'3417.9
2014-Sep-18 14:33N 53°59' E 004°13'1818.1
2014-Sep-18 13:32N 54°14' E 004°33'2616.5
2014-Sep-18 12:00N 54°36' E 004°54'3720.2 090 / 151014.0 5.4 1.022.014.917.0
2014-Sep-18 10:09N 55°05' E 005°34'1714.8
2014-Sep-18 09:00N 55°18' E 005°54'14419.3 090 / 181016.0 3.8 1.018.011.217.0
2014-Sep-18 01:33N 57°15' E 008°23'5618.8
2014-Sep-17 22:33N 57°46' E 009°51'2019.8
2014-Sep-17 21:33N 57°53' E 010°26'1818.3
2014-Sep-17 20:33N 57°44' E 010°55'1919.1
2014-Sep-17 19:33N 57°31' E 011°21'1919.0
2014-Sep-17 18:33N 57°13' E 011°36'1919.5
2014-Sep-17 17:33N 56°55' E 011°48'1615.7
2014-Sep-17 16:33N 56°40' E 011°42'1817.8
2014-Sep-17 15:33N 56°29' E 011°17'1313.1
2014-Sep-17 14:33N 56°17' E 011°06'9214.6
2014-Sep-17 08:16N 54°46' E 010°48'9 9.1
2014-Sep-17 07:20N 54°38' E 010°54'1012.7
2014-Sep-17 06:33N 54°36' E 011°11'1514.9
2014-Sep-17 05:33N 54°29' E 011°34'1515.2
2014-Sep-17 04:33N 54°26' E 011°59'1312.7
2014-Sep-17 03:34N 54°34' E 012°15'1514.7
2014-Sep-17 02:34N 54°44' E 012°34'1616.3
2014-Sep-17 01:34N 54°47' E 013°02'1818.3
2014-Sep-17 00:34N 54°47' E 013°34'1818.2
2014-Sep-16 23:34N 54°41' E 014°04'1817.7
2014-Sep-16 22:33N 54°40' E 014°34'1818.5
2014-Sep-16 21:34N 54°46' E 015°04'1818.4
2014-Sep-16 20:34N 54°53' E 015°33'1918.5
2014-Sep-16 19:33N 55°01' E 016°03'2018.5
2014-Sep-16 18:30N 55°08' E 016°35'1718.5
2014-Sep-16 17:34N 55°12' E 017°05'1918.8
2014-Sep-16 16:34N 55°18' E 017°36'2817.8
2014-Sep-16 15:00N 55°24' E 018°24'920.9 090 / 141026.0 5.4 1.022.014.917.0
2014-Sep-16 14:33N 55°27' E 018°39'1818.4
2014-Sep-16 13:34N 55°31' E 019°11'1918.4
2014-Sep-16 12:33N 55°36' E 019°42'3819.0
2014-Sep-16 10:33N 55°44' E 020°48'1110.5
2014-Sep-16 09:32N 55°42' E 021°07'2 0.4
2014-Sep-16 04:11N 55°41' E 021°09'0 0.0
2014-Sep-15 08:33N 55°41' E 021°09'60 7.2
2014-Sep-15 00:12N 55°11' E 019°36'1217.8
2014-Sep-14 23:33N 55°04' E 019°20'1817.8
2014-Sep-14 22:33N 54°49' E 019°05'1818.2
2014-Sep-14 21:33N 54°33' E 018°50'10 9.8
2014-Sep-14 20:33N 54°32' E 018°33'1 1.1
2014-Sep-14 19:26N 54°33' E 018°31'0 0.0
2014-Sep-14 18:32N 54°33' E 018°31'0 0.0
2014-Sep-14 17:32N 54°33' E 018°31'0 0.0
2014-Sep-14 16:31N 54°33' E 018°31'0 0.0
2014-Sep-14 15:31N 54°33' E 018°31'0 0.0
2014-Sep-14 14:33N 54°33' E 018°31'0 0.0
2014-Sep-14 13:33N 54°33' E 018°31'0 0.0
2014-Sep-14 12:32N 54°33' E 018°31'0 0.0
2014-Sep-14 11:32N 54°33' E 018°31'0 0.0
2014-Sep-14 10:31N 54°33' E 018°31'0 0.0
2014-Sep-14 09:31N 54°33' E 018°31'0 0.0
2014-Sep-14 08:31N 54°33' E 018°31'0 0.0
2014-Sep-14 07:33N 54°33' E 018°31'0 0.0
2014-Sep-14 06:33N 54°33' E 018°31'0 0.0
2014-Sep-14 05:32N 54°33' E 018°31'0 0.0
2014-Sep-14 04:32N 54°33' E 018°31'0 0.0
2014-Sep-14 03:31N 54°33' E 018°31'0 0.0
2014-Sep-14 02:33N 54°33' E 018°31'0 0.0
2014-Sep-14 01:31N 54°33' E 018°31'0 0.0
2014-Sep-13 21:32N 54°33' E 018°31'0 0.0
2014-Sep-13 20:31N 54°33' E 018°31'0 0.0
2014-Sep-13 19:31N 54°33' E 018°31'0 0.0
2014-Sep-13 18:31N 54°33' E 018°31'0 0.0
2014-Sep-13 17:33N 54°33' E 018°31'0 0.0
2014-Sep-13 16:30N 54°33' E 018°31'0 0.0
2014-Sep-13 15:32N 54°33' E 018°31'0 0.0
2014-Sep-13 14:29N 54°33' E 018°31'0 0.0
2014-Sep-13 13:28N 54°33' E 018°31'0 0.0
2014-Sep-13 12:28N 54°33' E 018°31'0 0.0
2014-Sep-13 11:28N 54°33' E 018°31'0 0.0
2014-Sep-13 10:33N 54°33' E 018°31'0 0.0
2014-Sep-13 09:33N 54°33' E 018°31'0 0.0
2014-Sep-13 08:32N 54°33' E 018°31'0 0.0
2014-Sep-13 07:32N 54°33' E 018°31'0 0.0
2014-Sep-13 06:31N 54°33' E 018°31'0 0.0
2014-Sep-13 05:31N 54°33' E 018°31'0 0.0
2014-Sep-13 04:34N 54°33' E 018°31'0 0.0
2014-Sep-13 03:33N 54°33' E 018°31'0 0.0
2014-Sep-13 02:33N 54°33' E 018°31'0 0.0
2014-Sep-13 01:29N 54°33' E 018°31'0 0.0
2014-Sep-13 00:32N 54°33' E 018°31'0 0.0
2014-Sep-12 23:28N 54°33' E 018°31'0 0.0
2014-Sep-12 22:25N 54°33' E 018°31'0 0.0
2014-Sep-12 21:34N 54°33' E 018°31'0 0.0
2014-Sep-12 20:33N 54°33' E 018°31'0 0.0
2014-Sep-12 19:33N 54°33' E 018°31'0 0.0
2014-Sep-12 18:32N 54°33' E 018°31'0 0.0
2014-Sep-12 17:29N 54°33' E 018°31'0 0.0
2014-Sep-12 16:31N 54°33' E 018°31'0 0.0
2014-Sep-12 15:31N 54°33' E 018°31'1 0.6
2014-Sep-12 14:33N 54°32' E 018°32'6 5.6
2014-Sep-12 13:33N 54°32' E 018°42'2 1.5
2014-Sep-12 12:33N 54°32' E 018°44'5 4.7
2014-Sep-12 11:33N 54°35' E 018°51'9 9.2
2014-Sep-12 10:33N 54°43' E 018°58'1312.7
2014-Sep-12 09:33N 54°53' E 018°44'1312.4
2014-Sep-12 08:33N 54°59' E 018°25'61110.9
2014-Sep-12 08:00N 56°00' E 018°12'59136.4 060 / 151020.0 5.4 1.521.015.513.0
2014-Sep-12 07:33N 55°01' E 018°03'5513.4
2014-Sep-12 03:29N 55°06' E 016°28'1918.1
2014-Sep-12 02:26N 54°59' E 015°58'1618.3
2014-Sep-12 01:34N 54°52' E 015°32'2418.4
2014-Sep-12 00:17N 54°43' E 014°55'1518.2
2014-Sep-11 23:27N 54°37' E 014°31'1618.0
2014-Sep-11 22:33N 54°39' E 014°03'1818.5
2014-Sep-11 21:34N 54°44' E 013°32'1918.5
2014-Sep-11 20:33N 54°46' E 013°00'1817.6
2014-Sep-11 19:33N 54°41' E 012°31'1717.1
2014-Sep-11 18:33N 54°28' E 012°13'1413.6
2014-Sep-11 17:32N 54°25' E 011°49'3414.6
2014-Sep-11 15:12N 54°37' E 010°55'41 7.8
2014-Sep-11 10:00N 55°18' E 011°00'7413.6 040 / 71022.010.8 20.011.616.0
2014-Sep-11 04:33N 56°29' E 011°35'  
Track history (hours):
 
Tides and Currents Weather Stations Pressure Air Temp Water Temp Dewpoint Dewpoint Depression Visibility Wind Speed Wind Dir Waves Ship Positions

MSC Cordoba

Last reported at 2014-Sep-21 05:31 UTC. Time now 2014-Sep-21 06:05 UTC.
Position N 51°19' E 004°19'.

Length 274 m; draft 12.1 m.

Type: Ship (hazmat cat A). MMSI: 636091473.

Date/timePositionNaut miles runAvg speedWind from/ knotsBaromVisibWave heightAir tempDewpointWater temp
2014-Sep-21 05:31N 51°19' E 004°19'0 0.0
2014-Sep-21 04:31N 51°19' E 004°19'0 0.0
2014-Sep-21 03:31N 51°19' E 004°19'0 0.0
2014-Sep-21 02:33N 51°19' E 004°19'0 0.0
2014-Sep-21 01:33N 51°19' E 004°19'0 0.0
2014-Sep-21 00:32N 51°19' E 004°19'0 0.0
2014-Sep-20 23:33N 51°19' E 004°19'0 0.0
2014-Sep-20 22:28N 51°19' E 004°19'0 0.0
2014-Sep-20 21:31N 51°19' E 004°19'1 1.2
2014-Sep-20 20:33N 51°20' E 004°18'1 0.6
2014-Sep-20 19:33N 51°21' E 004°17'0 0.0
2014-Sep-20 18:34N 51°21' E 004°17'5 5.1
2014-Sep-20 17:33N 51°23' E 004°10'8 7.7
2014-Sep-20 16:33N 51°25' E 003°58'9 9.1
2014-Sep-20 15:33N 51°22' E 003°44'8 7.8
2014-Sep-20 14:33N 51°25' E 003°33'1010.3
2014-Sep-20 13:33N 51°24' E 003°16'1212.5
2014-Sep-20 12:34N 51°25' E 002°56'1313.1
2014-Sep-20 11:33N 51°22' E 002°36'1513.2
2014-Sep-20 10:24N 51°17' E 002°13'1719.8
2014-Sep-20 09:33N 51°09' E 001°50'2019.6
2014-Sep-20 08:33N 50°54' E 001°29'2018.6
2014-Sep-20 07:28N 50°36' E 001°13'1719.2
2014-Sep-20 06:33N 50°25' E 000°53'2019.7
2014-Sep-20 05:32N 50°10' E 000°31'4118.5
2014-Sep-20 03:19N 49°36' W 000°05'810.9
2014-Sep-20 02:33N 49°30' E 000°03'4 3.6
2014-Sep-20 01:28N 49°28' E 000°09'0 0.0
2014-Sep-19 22:27N 49°28' E 000°09'0 0.0
2014-Sep-19 20:26N 49°28' E 000°09'0 0.0
2014-Sep-19 19:29N 49°28' E 000°09'0 0.0
2014-Sep-19 18:19N 49°28' E 000°09'0 0.0
2014-Sep-19 17:04N 49°28' E 000°09'0 0.0
2014-Sep-19 16:06N 49°28' E 000°09'0 0.0
2014-Sep-19 15:24N 49°28' E 000°09'0 0.0
2014-Sep-19 12:16N 49°28' E 000°09'0 0.0
2014-Sep-19 11:28N 49°28' E 000°09'0 0.0
2014-Sep-19 10:33N 49°28' E 000°09'9 8.9
2014-Sep-19 09:33N 49°31' W 000°04'9 8.9
2014-Sep-19 08:33N 49°39' W 000°08'9 9.1
2014-Sep-19 07:33N 49°49' W 000°09'3817.8
2014-Sep-19 05:26N 50°26' W 000°03'1517.1
2014-Sep-19 04:33N 50°31' E 000°19'1817.8
2014-Sep-19 03:33N 50°39' E 000°45'1919.1
2014-Sep-19 02:33N 50°50' E 001°09'2120.1
2014-Sep-19 01:32N 51°05' E 001°32'1919.5
2014-Sep-19 00:33N 51°20' E 001°50'1818.3
2014-Sep-18 23:33N 51°34' E 002°09'1918.5
2014-Sep-18 22:33N 51°48' E 002°29'1717.4
2014-Sep-18 21:33N 52°05' E 002°37'1817.8
2014-Sep-18 20:32N 52°22' E 002°46'7719.1
2014-Sep-18 16:29N 53°33' E 003°35'3417.9
2014-Sep-18 14:33N 53°59' E 004°13'1818.1
2014-Sep-18 13:32N 54°14' E 004°33'2616.5
2014-Sep-18 12:00N 54°36' E 004°54'3720.2 090 / 151014.0 5.4 1.022.014.917.0
2014-Sep-18 10:09N 55°05' E 005°34'1714.8
2014-Sep-18 09:00N 55°18' E 005°54'14419.3 090 / 181016.0 3.8 1.018.011.217.0
2014-Sep-18 01:33N 57°15' E 008°23'5618.8
2014-Sep-17 22:33N 57°46' E 009°51'2019.8
2014-Sep-17 21:33N 57°53' E 010°26'1818.3
2014-Sep-17 20:33N 57°44' E 010°55'1919.1
2014-Sep-17 19:33N 57°31' E 011°21'1919.0
2014-Sep-17 18:33N 57°13' E 011°36'1919.5
2014-Sep-17 17:33N 56°55' E 011°48'1615.7
2014-Sep-17 16:33N 56°40' E 011°42'1817.8
2014-Sep-17 15:33N 56°29' E 011°17'1313.1
2014-Sep-17 14:33N 56°17' E 011°06'9214.6
2014-Sep-17 08:16N 54°46' E 010°48'9 9.1
2014-Sep-17 07:20N 54°38' E 010°54'1012.7
2014-Sep-17 06:33N 54°36' E 011°11'1514.9
2014-Sep-17 05:33N 54°29' E 011°34'1515.2
2014-Sep-17 04:33N 54°26' E 011°59'1312.7
2014-Sep-17 03:34N 54°34' E 012°15'1514.7
2014-Sep-17 02:34N 54°44' E 012°34'1616.3
2014-Sep-17 01:34N 54°47' E 013°02'1818.3
2014-Sep-17 00:34N 54°47' E 013°34'1818.2
2014-Sep-16 23:34N 54°41' E 014°04'1817.7
2014-Sep-16 22:33N 54°40' E 014°34'1818.5
2014-Sep-16 21:34N 54°46' E 015°04'1818.4
2014-Sep-16 20:34N 54°53' E 015°33'1918.5
2014-Sep-16 19:33N 55°01' E 016°03'2018.5
2014-Sep-16 18:30N 55°08' E 016°35'1718.5
2014-Sep-16 17:34N 55°12' E 017°05'1918.8
2014-Sep-16 16:34N 55°18' E 017°36'2817.8
2014-Sep-16 15:00N 55°24' E 018°24'920.9 090 / 141026.0 5.4 1.022.014.917.0
2014-Sep-16 14:33N 55°27' E 018°39'1818.4
2014-Sep-16 13:34N 55°31' E 019°11'1918.4
2014-Sep-16 12:33N 55°36' E 019°42'3819.0
2014-Sep-16 10:33N 55°44' E 020°48'1110.5
2014-Sep-16 09:32N 55°42' E 021°07'2 0.4
2014-Sep-16 04:11N 55°41' E 021°09'0 0.0
2014-Sep-15 08:33N 55°41' E 021°09'60 7.2
2014-Sep-15 00:12N 55°11' E 019°36'1217.8
2014-Sep-14 23:33N 55°04' E 019°20'1817.8
2014-Sep-14 22:33N 54°49' E 019°05'1818.2
2014-Sep-14 21:33N 54°33' E 018°50'10 9.8
2014-Sep-14 20:33N 54°32' E 018°33'1 1.1
2014-Sep-14 19:26N 54°33' E 018°31'0 0.0
2014-Sep-14 18:32N 54°33' E 018°31'0 0.0
2014-Sep-14 17:32N 54°33' E 018°31'0 0.0
2014-Sep-14 16:31N 54°33' E 018°31'0 0.0
2014-Sep-14 15:31N 54°33' E 018°31'0 0.0
2014-Sep-14 14:33N 54°33' E 018°31'0 0.0
2014-Sep-14 13:33N 54°33' E 018°31'0 0.0
2014-Sep-14 12:32N 54°33' E 018°31'0 0.0
2014-Sep-14 11:32N 54°33' E 018°31'0 0.0
2014-Sep-14 10:31N 54°33' E 018°31'0 0.0
2014-Sep-14 09:31N 54°33' E 018°31'0 0.0
2014-Sep-14 08:31N 54°33' E 018°31'0 0.0
2014-Sep-14 07:33N 54°33' E 018°31'0 0.0
2014-Sep-14 06:33N 54°33' E 018°31'0 0.0
2014-Sep-14 05:32N 54°33' E 018°31'0 0.0
2014-Sep-14 04:32N 54°33' E 018°31'0 0.0
2014-Sep-14 03:31N 54°33' E 018°31'0 0.0
2014-Sep-14 02:33N 54°33' E 018°31'0 0.0
2014-Sep-14 01:31N 54°33' E 018°31'0 0.0
2014-Sep-13 21:32N 54°33' E 018°31'0 0.0
2014-Sep-13 20:31N 54°33' E 018°31'0 0.0
2014-Sep-13 19:31N 54°33' E 018°31'0 0.0
2014-Sep-13 18:31N 54°33' E 018°31'0 0.0
2014-Sep-13 17:33N 54°33' E 018°31'0 0.0
2014-Sep-13 16:30N 54°33' E 018°31'0 0.0
2014-Sep-13 15:32N 54°33' E 018°31'0 0.0
2014-Sep-13 14:29N 54°33' E 018°31'0 0.0
2014-Sep-13 13:28N 54°33' E 018°31'0 0.0
2014-Sep-13 12:28N 54°33' E 018°31'0 0.0
2014-Sep-13 11:28N 54°33' E 018°31'0 0.0
2014-Sep-13 10:33N 54°33' E 018°31'0 0.0
2014-Sep-13 09:33N 54°33' E 018°31'0 0.0
2014-Sep-13 08:32N 54°33' E 018°31'0 0.0
2014-Sep-13 07:32N 54°33' E 018°31'0 0.0
2014-Sep-13 06:31N 54°33' E 018°31'0 0.0
2014-Sep-13 05:31N 54°33' E 018°31'0 0.0
2014-Sep-13 04:34N 54°33' E 018°31'0 0.0
2014-Sep-13 03:33N 54°33' E 018°31'0 0.0
2014-Sep-13 02:33N 54°33' E 018°31'0 0.0
2014-Sep-13 01:29N 54°33' E 018°31'0 0.0
2014-Sep-13 00:32N 54°33' E 018°31'0 0.0
2014-Sep-12 23:28N 54°33' E 018°31'0 0.0
2014-Sep-12 22:25N 54°33' E 018°31'0 0.0
2014-Sep-12 21:34N 54°33' E 018°31'0 0.0
2014-Sep-12 20:33N 54°33' E 018°31'0 0.0
2014-Sep-12 19:33N 54°33' E 018°31'0 0.0
2014-Sep-12 18:32N 54°33' E 018°31'0 0.0
2014-Sep-12 17:29N 54°33' E 018°31'0 0.0
2014-Sep-12 16:31N 54°33' E 018°31'0 0.0
2014-Sep-12 15:31N 54°33' E 018°31'1 0.6
2014-Sep-12 14:33N 54°32' E 018°32'6 5.6
2014-Sep-12 13:33N 54°32' E 018°42'2 1.5
2014-Sep-12 12:33N 54°32' E 018°44'5 4.7
2014-Sep-12 11:33N 54°35' E 018°51'9 9.2
2014-Sep-12 10:33N 54°43' E 018°58'1312.7
2014-Sep-12 09:33N 54°53' E 018°44'1312.4
2014-Sep-12 08:33N 54°59' E 018°25'61110.9
2014-Sep-12 08:00N 56°00' E 018°12'59136.4 060 / 151020.0 5.4 1.521.015.513.0
2014-Sep-12 07:33N 55°01' E 018°03'5513.4
2014-Sep-12 03:29N 55°06' E 016°28'1918.1
2014-Sep-12 02:26N 54°59' E 015°58'1618.3
2014-Sep-12 01:34N 54°52' E 015°32'2418.4
2014-Sep-12 00:17N 54°43' E 014°55'1518.2
2014-Sep-11 23:27N 54°37' E 014°31'1618.0
2014-Sep-11 22:33N 54°39' E 014°03'1818.5
2014-Sep-11 21:34N 54°44' E 013°32'1918.5
2014-Sep-11 20:33N 54°46' E 013°00'1817.6
2014-Sep-11 19:33N 54°41' E 012°31'1717.1
2014-Sep-11 18:33N 54°28' E 012°13'1413.6
2014-Sep-11 17:32N 54°25' E 011°49'3414.6
2014-Sep-11 15:12N 54°37' E 010°55'41 7.8
2014-Sep-11 10:00N 55°18' E 011°00'7413.6 040 / 71022.010.8 20.011.616.0
2014-Sep-11 04:33N 56°29' E 011°35'  

Dump ship's entire track history